sensor_id;sensor_type;location;lat;lon;timestamp;P1;durP1;ratioP1;P2;durP2;ratioP2
37955;SDS011;23776;51.592;7.180;2023-04-29T00:00:03;75.00;;;29.08;;
37955;SDS011;23776;51.592;7.180;2023-04-29T00:02:30;71.47;;;28.65;;
37955;SDS011;23776;51.592;7.180;2023-04-29T00:04:57;71.22;;;29.65;;
37955;SDS011;23776;51.592;7.180;2023-04-29T00:07:22;83.88;;;31.30;;
37955;SDS011;23776;51.592;7.180;2023-04-29T00:09:48;76.03;;;28.50;;
37955;SDS011;23776;51.592;7.180;2023-04-29T00:12:14;76.40;;;29.52;;
37955;SDS011;23776;51.592;7.180;2023-04-29T00:14:39;73.22;;;28.98;;
37955;SDS011;23776;51.592;7.180;2023-04-29T00:17:07;84.47;;;31.48;;
37955;SDS011;23776;51.592;7.180;2023-04-29T00:19:33;80.97;;;31.15;;
37955;SDS011;23776;51.592;7.180;2023-04-29T00:21:58;72.65;;;28.60;;
37955;SDS011;23776;51.592;7.180;2023-04-29T00:24:25;96.10;;;33.85;;
37955;SDS011;23776;51.592;7.180;2023-04-29T00:26:51;93.30;;;33.47;;
37955;SDS011;23776;51.592;7.180;2023-04-29T00:29:16;101.20;;;36.05;;
37955;SDS011;23776;51.592;7.180;2023-04-29T00:31:42;96.60;;;32.95;;
37955;SDS011;23776;51.592;7.180;2023-04-29T00:34:08;102.45;;;36.20;;
37955;SDS011;23776;51.592;7.180;2023-04-29T00:36:34;101.28;;;34.22;;
37955;SDS011;23776;51.592;7.180;2023-04-29T00:39:00;105.55;;;35.53;;
37955;SDS011;23776;51.592;7.180;2023-04-29T00:41:27;106.43;;;38.13;;
37955;SDS011;23776;51.592;7.180;2023-04-29T00:43:55;107.97;;;37.03;;
37955;SDS011;23776;51.592;7.180;2023-04-29T00:46:20;119.90;;;39.92;;
37955;SDS011;23776;51.592;7.180;2023-04-29T00:48:46;104.90;;;37.38;;
37955;SDS011;23776;51.592;7.180;2023-04-29T00:51:12;114.50;;;38.45;;
37955;SDS011;23776;51.592;7.180;2023-04-29T00:53:38;124.25;;;41.45;;
37955;SDS011;23776;51.592;7.180;2023-04-29T00:56:04;117.30;;;41.60;;
37955;SDS011;23776;51.592;7.180;2023-04-29T00:58:32;124.07;;;40.65;;
37955;SDS011;23776;51.592;7.180;2023-04-29T01:01:02;124.05;;;42.10;;
37955;SDS011;23776;51.592;7.180;2023-04-29T01:03:28;119.43;;;41.35;;
37955;SDS011;23776;51.592;7.180;2023-04-29T01:06:00;123.13;;;42.80;;
37955;SDS011;23776;51.592;7.180;2023-04-29T01:11:48;120.57;;;42.25;;
37955;SDS011;23776;51.592;7.180;2023-04-29T01:14:17;123.35;;;43.83;;
37955;SDS011;23776;51.592;7.180;2023-04-29T01:16:47;116.97;;;39.47;;
37955;SDS011;23776;51.592;7.180;2023-04-29T01:22:10;115.38;;;38.72;;
37955;SDS011;23776;51.592;7.180;2023-04-29T01:24:38;121.60;;;42.92;;
37955;SDS011;23776;51.592;7.180;2023-04-29T01:27:07;126.05;;;43.22;;
37955;SDS011;23776;51.592;7.180;2023-04-29T01:38:16;138.85;;;44.72;;
37955;SDS011;23776;51.592;7.180;2023-04-29T01:40:47;140.48;;;46.22;;
37955;SDS011;23776;51.592;7.180;2023-04-29T01:43:23;135.63;;;44.03;;
37955;SDS011;23776;51.592;7.180;2023-04-29T01:45:52;142.30;;;46.05;;
37955;SDS011;23776;51.592;7.180;2023-04-29T01:48:21;132.70;;;43.85;;
37955;SDS011;23776;51.592;7.180;2023-04-29T01:50:48;145.60;;;45.13;;
37955;SDS011;23776;51.592;7.180;2023-04-29T01:53:14;143.43;;;45.80;;
37955;SDS011;23776;51.592;7.180;2023-04-29T01:55:40;146.85;;;46.90;;
37955;SDS011;23776;51.592;7.180;2023-04-29T01:58:08;134.23;;;43.83;;
37955;SDS011;23776;51.592;7.180;2023-04-29T02:00:35;129.80;;;42.78;;
37955;SDS011;23776;51.592;7.180;2023-04-29T02:03:02;142.70;;;45.15;;
37955;SDS011;23776;51.592;7.180;2023-04-29T02:05:27;125.78;;;45.28;;
37955;SDS011;23776;51.592;7.180;2023-04-29T02:07:56;137.93;;;43.08;;
37955;SDS011;23776;51.592;7.180;2023-04-29T02:10:22;131.25;;;43.50;;
37955;SDS011;23776;51.592;7.180;2023-04-29T02:12:47;120.70;;;40.72;;
37955;SDS011;23776;51.592;7.180;2023-04-29T02:15:13;122.15;;;39.75;;
37955;SDS011;23776;51.592;7.180;2023-04-29T02:17:39;112.22;;;37.78;;
37955;SDS011;23776;51.592;7.180;2023-04-29T02:20:05;110.53;;;38.45;;
37955;SDS011;23776;51.592;7.180;2023-04-29T02:22:31;116.55;;;40.92;;
37955;SDS011;23776;51.592;7.180;2023-04-29T02:24:57;109.55;;;37.28;;
37955;SDS011;23776;51.592;7.180;2023-04-29T02:27:22;106.22;;;36.45;;
37955;SDS011;23776;51.592;7.180;2023-04-29T02:29:48;102.45;;;34.42;;
37955;SDS011;23776;51.592;7.180;2023-04-29T02:32:15;76.00;;;29.75;;
37955;SDS011;23776;51.592;7.180;2023-04-29T02:34:43;81.60;;;29.33;;
37955;SDS011;23776;51.592;7.180;2023-04-29T02:37:10;84.30;;;30.05;;
37955;SDS011;23776;51.592;7.180;2023-04-29T02:39:35;87.40;;;30.73;;
37955;SDS011;23776;51.592;7.180;2023-04-29T02:42:01;79.03;;;28.67;;
37955;SDS011;23776;51.592;7.180;2023-04-29T02:44:27;77.15;;;28.20;;
37955;SDS011;23776;51.592;7.180;2023-04-29T02:46:53;77.25;;;30.05;;
37955;SDS011;23776;51.592;7.180;2023-04-29T02:49:18;73.22;;;26.80;;
37955;SDS011;23776;51.592;7.180;2023-04-29T02:51:44;80.25;;;28.48;;
37955;SDS011;23776;51.592;7.180;2023-04-29T02:54:10;75.25;;;28.40;;
37955;SDS011;23776;51.592;7.180;2023-04-29T02:56:36;71.57;;;27.25;;
37955;SDS011;23776;51.592;7.180;2023-04-29T02:59:02;81.70;;;30.83;;
37955;SDS011;23776;51.592;7.180;2023-04-29T03:01:27;72.18;;;28.88;;
37955;SDS011;23776;51.592;7.180;2023-04-29T03:03:53;83.53;;;30.75;;
37955;SDS011;23776;51.592;7.180;2023-04-29T03:06:19;73.03;;;27.70;;
37955;SDS011;23776;51.592;7.180;2023-04-29T03:08:45;77.10;;;29.38;;
37955;SDS011;23776;51.592;7.180;2023-04-29T03:11:10;78.47;;;29.17;;
37955;SDS011;23776;51.592;7.180;2023-04-29T03:13:36;85.85;;;30.00;;
37955;SDS011;23776;51.592;7.180;2023-04-29T03:16:02;76.22;;;27.85;;
37955;SDS011;23776;51.592;7.180;2023-04-29T03:18:28;74.13;;;28.15;;
37955;SDS011;23776;51.592;7.180;2023-04-29T03:20:53;73.93;;;28.35;;
37955;SDS011;23776;51.592;7.180;2023-04-29T03:23:19;81.63;;;27.80;;
37955;SDS011;23776;51.592;7.180;2023-04-29T03:25:46;78.95;;;26.30;;
37955;SDS011;23776;51.592;7.180;2023-04-29T03:28:11;85.47;;;29.42;;
37955;SDS011;23776;51.592;7.180;2023-04-29T03:30:37;76.63;;;27.85;;
37955;SDS011;23776;51.592;7.180;2023-04-29T03:33:02;78.90;;;29.17;;
37955;SDS011;23776;51.592;7.180;2023-04-29T03:35:28;71.28;;;26.45;;
37955;SDS011;23776;51.592;7.180;2023-04-29T03:37:54;80.78;;;28.17;;
37955;SDS011;23776;51.592;7.180;2023-04-29T03:40:20;74.15;;;27.65;;
37955;SDS011;23776;51.592;7.180;2023-04-29T03:42:45;75.13;;;27.42;;
37955;SDS011;23776;51.592;7.180;2023-04-29T03:45:11;84.18;;;28.27;;
37955;SDS011;23776;51.592;7.180;2023-04-29T03:47:38;72.07;;;26.73;;
37955;SDS011;23776;51.592;7.180;2023-04-29T03:50:04;74.30;;;27.02;;
37955;SDS011;23776;51.592;7.180;2023-04-29T03:52:31;72.22;;;26.38;;
37955;SDS011;23776;51.592;7.180;2023-04-29T03:54:56;78.93;;;27.55;;
37955;SDS011;23776;51.592;7.180;2023-04-29T03:57:22;68.40;;;26.17;;
37955;SDS011;23776;51.592;7.180;2023-04-29T03:59:47;69.43;;;26.33;;
37955;SDS011;23776;51.592;7.180;2023-04-29T04:02:14;66.78;;;25.75;;
37955;SDS011;23776;51.592;7.180;2023-04-29T04:04:40;68.45;;;25.55;;
37955;SDS011;23776;51.592;7.180;2023-04-29T04:07:06;68.78;;;27.75;;
37955;SDS011;23776;51.592;7.180;2023-04-29T04:09:32;67.63;;;28.73;;
37955;SDS011;23776;51.592;7.180;2023-04-29T04:11:57;73.90;;;26.60;;
37955;SDS011;23776;51.592;7.180;2023-04-29T04:14:24;68.55;;;26.70;;
37955;SDS011;23776;51.592;7.180;2023-04-29T04:16:49;74.32;;;27.30;;
37955;SDS011;23776;51.592;7.180;2023-04-29T04:19:15;67.18;;;28.35;;
37955;SDS011;23776;51.592;7.180;2023-04-29T04:21:41;66.43;;;27.88;;
37955;SDS011;23776;51.592;7.180;2023-04-29T04:24:06;66.63;;;27.33;;
37955;SDS011;23776;51.592;7.180;2023-04-29T04:26:32;69.47;;;28.88;;
37955;SDS011;23776;51.592;7.180;2023-04-29T04:28:58;67.85;;;29.13;;
37955;SDS011;23776;51.592;7.180;2023-04-29T04:31:23;74.03;;;28.10;;
37955;SDS011;23776;51.592;7.180;2023-04-29T04:33:49;75.22;;;28.60;;
37955;SDS011;23776;51.592;7.180;2023-04-29T04:36:15;64.53;;;26.02;;
37955;SDS011;23776;51.592;7.180;2023-04-29T04:38:40;71.35;;;26.98;;
37955;SDS011;23776;51.592;7.180;2023-04-29T04:41:06;74.47;;;29.70;;
37955;SDS011;23776;51.592;7.180;2023-04-29T04:43:32;59.50;;;26.88;;
37955;SDS011;23776;51.592;7.180;2023-04-29T04:45:57;64.32;;;28.08;;
37955;SDS011;23776;51.592;7.180;2023-04-29T04:48:23;66.82;;;27.67;;
37955;SDS011;23776;51.592;7.180;2023-04-29T04:50:49;68.95;;;27.77;;
37955;SDS011;23776;51.592;7.180;2023-04-29T04:53:14;67.60;;;28.55;;
37955;SDS011;23776;51.592;7.180;2023-04-29T04:55:40;63.08;;;27.40;;
37955;SDS011;23776;51.592;7.180;2023-04-29T04:58:06;64.20;;;27.30;;
37955;SDS011;23776;51.592;7.180;2023-04-29T05:00:31;69.18;;;27.95;;
37955;SDS011;23776;51.592;7.180;2023-04-29T05:02:57;64.00;;;27.73;;
37955;SDS011;23776;51.592;7.180;2023-04-29T05:05:22;60.60;;;27.55;;
37955;SDS011;23776;51.592;7.180;2023-04-29T05:07:48;61.30;;;27.55;;
37955;SDS011;23776;51.592;7.180;2023-04-29T05:10:14;72.00;;;29.30;;
37955;SDS011;23776;51.592;7.180;2023-04-29T05:12:39;76.57;;;29.55;;
37955;SDS011;23776;51.592;7.180;2023-04-29T05:15:05;69.75;;;29.70;;
37955;SDS011;23776;51.592;7.180;2023-04-29T05:17:31;67.53;;;28.77;;
37955;SDS011;23776;51.592;7.180;2023-04-29T05:19:58;66.97;;;29.77;;
37955;SDS011;23776;51.592;7.180;2023-04-29T05:22:24;60.38;;;27.20;;
37955;SDS011;23776;51.592;7.180;2023-04-29T05:24:50;59.10;;;26.77;;
37955;SDS011;23776;51.592;7.180;2023-04-29T05:27:16;61.67;;;27.42;;
37955;SDS011;23776;51.592;7.180;2023-04-29T05:29:42;67.45;;;29.13;;
37955;SDS011;23776;51.592;7.180;2023-04-29T05:32:08;62.50;;;29.35;;
37955;SDS011;23776;51.592;7.180;2023-04-29T05:34:34;65.32;;;28.88;;
37955;SDS011;23776;51.592;7.180;2023-04-29T05:36:59;60.83;;;26.60;;
37955;SDS011;23776;51.592;7.180;2023-04-29T05:39:25;64.28;;;27.48;;
37955;SDS011;23776;51.592;7.180;2023-04-29T05:41:51;68.95;;;30.15;;
37955;SDS011;23776;51.592;7.180;2023-04-29T05:44:16;64.47;;;27.17;;
37955;SDS011;23776;51.592;7.180;2023-04-29T05:46:42;71.43;;;29.35;;
37955;SDS011;23776;51.592;7.180;2023-04-29T05:49:08;69.80;;;29.42;;
37955;SDS011;23776;51.592;7.180;2023-04-29T05:51:33;59.53;;;27.17;;
37955;SDS011;23776;51.592;7.180;2023-04-29T05:53:59;59.95;;;29.00;;
37955;SDS011;23776;51.592;7.180;2023-04-29T05:56:25;59.63;;;27.98;;
37955;SDS011;23776;51.592;7.180;2023-04-29T05:58:50;68.28;;;29.83;;
37955;SDS011;23776;51.592;7.180;2023-04-29T06:01:16;68.65;;;29.52;;
37955;SDS011;23776;51.592;7.180;2023-04-29T06:03:42;63.05;;;27.90;;
37955;SDS011;23776;51.592;7.180;2023-04-29T06:06:07;63.40;;;30.10;;
37955;SDS011;23776;51.592;7.180;2023-04-29T06:08:34;67.05;;;27.75;;
37955;SDS011;23776;51.592;7.180;2023-04-29T06:11:00;61.47;;;27.13;;
37955;SDS011;23776;51.592;7.180;2023-04-29T06:13:27;57.45;;;27.63;;
37955;SDS011;23776;51.592;7.180;2023-04-29T06:15:54;60.05;;;28.17;;
37955;SDS011;23776;51.592;7.180;2023-04-29T06:18:20;54.78;;;25.83;;
37955;SDS011;23776;51.592;7.180;2023-04-29T06:20:45;51.65;;;24.77;;
37955;SDS011;23776;51.592;7.180;2023-04-29T06:23:11;56.10;;;26.73;;
37955;SDS011;23776;51.592;7.180;2023-04-29T06:25:37;63.78;;;29.02;;
37955;SDS011;23776;51.592;7.180;2023-04-29T06:28:02;57.72;;;28.60;;
37955;SDS011;23776;51.592;7.180;2023-04-29T06:30:28;64.57;;;28.70;;
37955;SDS011;23776;51.592;7.180;2023-04-29T06:32:54;68.95;;;29.35;;
37955;SDS011;23776;51.592;7.180;2023-04-29T06:35:19;58.80;;;27.75;;
37955;SDS011;23776;51.592;7.180;2023-04-29T06:37:45;62.70;;;27.50;;
37955;SDS011;23776;51.592;7.180;2023-04-29T06:40:11;49.47;;;26.08;;
37955;SDS011;23776;51.592;7.180;2023-04-29T06:42:37;63.67;;;27.33;;
37955;SDS011;23776;51.592;7.180;2023-04-29T06:45:03;65.53;;;28.33;;
37955;SDS011;23776;51.592;7.180;2023-04-29T06:47:29;68.20;;;30.73;;
37955;SDS011;23776;51.592;7.180;2023-04-29T06:49:54;71.28;;;30.77;;
37955;SDS011;23776;51.592;7.180;2023-04-29T06:52:20;65.18;;;29.35;;
37955;SDS011;23776;51.592;7.180;2023-04-29T06:54:46;68.20;;;31.00;;
37955;SDS011;23776;51.592;7.180;2023-04-29T06:57:11;71.82;;;30.15;;
37955;SDS011;23776;51.592;7.180;2023-04-29T06:59:37;71.13;;;29.17;;
37955;SDS011;23776;51.592;7.180;2023-04-29T07:02:02;71.18;;;29.48;;
37955;SDS011;23776;51.592;7.180;2023-04-29T07:04:28;63.40;;;28.98;;
37955;SDS011;23776;51.592;7.180;2023-04-29T07:06:54;74.93;;;31.92;;
37955;SDS011;23776;51.592;7.180;2023-04-29T07:09:20;62.70;;;28.58;;
37955;SDS011;23776;51.592;7.180;2023-04-29T07:11:47;65.35;;;30.17;;
37955;SDS011;23776;51.592;7.180;2023-04-29T07:14:13;69.25;;;30.25;;
37955;SDS011;23776;51.592;7.180;2023-04-29T07:16:38;71.28;;;30.77;;
37955;SDS011;23776;51.592;7.180;2023-04-29T07:19:04;65.18;;;29.35;;
37955;SDS011;23776;51.592;7.180;2023-04-29T07:21:30;68.88;;;32.83;;
37955;SDS011;23776;51.592;7.180;2023-04-29T07:23:55;82.60;;;33.97;;
37955;SDS011;23776;51.592;7.180;2023-04-29T07:26:23;80.55;;;35.78;;
37955;SDS011;23776;51.592;7.180;2023-04-29T07:28:48;83.90;;;35.10;;
37955;SDS011;23776;51.592;7.180;2023-04-29T07:31:14;79.10;;;34.15;;
37955;SDS011;23776;51.592;7.180;2023-04-29T07:33:40;83.07;;;32.30;;
37955;SDS011;23776;51.592;7.180;2023-04-29T07:36:06;75.95;;;32.22;;
37955;SDS011;23776;51.592;7.180;2023-04-29T07:38:31;90.55;;;35.42;;
37955;SDS011;23776;51.592;7.180;2023-04-29T07:40:58;88.82;;;36.65;;
37955;SDS011;23776;51.592;7.180;2023-04-29T07:43:23;83.05;;;33.38;;
37955;SDS011;23776;51.592;7.180;2023-04-29T07:45:49;92.25;;;35.58;;
37955;SDS011;23776;51.592;7.180;2023-04-29T07:48:15;79.20;;;33.97;;
37955;SDS011;23776;51.592;7.180;2023-04-29T07:50:41;83.75;;;34.20;;
37955;SDS011;23776;51.592;7.180;2023-04-29T07:53:07;75.65;;;33.35;;
37955;SDS011;23776;51.592;7.180;2023-04-29T07:55:32;86.00;;;36.38;;
37955;SDS011;23776;51.592;7.180;2023-04-29T07:57:58;83.15;;;35.50;;
37955;SDS011;23776;51.592;7.180;2023-04-29T08:00:24;86.80;;;35.08;;
37955;SDS011;23776;51.592;7.180;2023-04-29T08:02:53;95.40;;;38.67;;
37955;SDS011;23776;51.592;7.180;2023-04-29T08:05:19;99.68;;;38.10;;
37955;SDS011;23776;51.592;7.180;2023-04-29T08:07:49;94.65;;;34.58;;
37955;SDS011;23776;51.592;7.180;2023-04-29T08:10:15;94.47;;;36.30;;
37955;SDS011;23776;51.592;7.180;2023-04-29T08:12:45;94.75;;;36.25;;
37955;SDS011;23776;51.592;7.180;2023-04-29T08:15:11;80.45;;;34.30;;
37955;SDS011;23776;51.592;7.180;2023-04-29T08:17:36;89.30;;;34.45;;
37955;SDS011;23776;51.592;7.180;2023-04-29T08:20:02;87.65;;;32.60;;
37955;SDS011;23776;51.592;7.180;2023-04-29T08:22:28;83.70;;;33.78;;
37955;SDS011;23776;51.592;7.180;2023-04-29T08:24:54;89.53;;;35.17;;
37955;SDS011;23776;51.592;7.180;2023-04-29T08:27:20;80.45;;;33.15;;
37955;SDS011;23776;51.592;7.180;2023-04-29T08:29:46;93.07;;;35.63;;
37955;SDS011;23776;51.592;7.180;2023-04-29T08:32:11;81.20;;;33.90;;
37955;SDS011;23776;51.592;7.180;2023-04-29T08:34:37;85.20;;;34.92;;
37955;SDS011;23776;51.592;7.180;2023-04-29T08:37:03;86.63;;;35.55;;
37955;SDS011;23776;51.592;7.180;2023-04-29T08:39:28;83.38;;;34.90;;
37955;SDS011;23776;51.592;7.180;2023-04-29T08:41:57;88.15;;;35.13;;
37955;SDS011;23776;51.592;7.180;2023-04-29T08:44:26;97.15;;;36.88;;
37955;SDS011;23776;51.592;7.180;2023-04-29T08:46:54;90.45;;;35.55;;
37955;SDS011;23776;51.592;7.180;2023-04-29T08:49:21;80.38;;;33.50;;
37955;SDS011;23776;51.592;7.180;2023-04-29T08:51:47;83.95;;;35.03;;
37955;SDS011;23776;51.592;7.180;2023-04-29T08:54:15;89.55;;;36.63;;
37955;SDS011;23776;51.592;7.180;2023-04-29T08:56:42;89.65;;;34.78;;
37955;SDS011;23776;51.592;7.180;2023-04-29T08:59:09;87.07;;;34.97;;
37955;SDS011;23776;51.592;7.180;2023-04-29T09:01:38;85.32;;;34.72;;
37955;SDS011;23776;51.592;7.180;2023-04-29T09:06:31;84.15;;;34.22;;
37955;SDS011;23776;51.592;7.180;2023-04-29T09:08:58;91.85;;;33.42;;
37955;SDS011;23776;51.592;7.180;2023-04-29T09:11:24;83.82;;;31.70;;
37955;SDS011;23776;51.592;7.180;2023-04-29T09:13:52;82.93;;;34.25;;
37955;SDS011;23776;51.592;7.180;2023-04-29T09:16:27;86.22;;;34.70;;
37955;SDS011;23776;51.592;7.180;2023-04-29T09:18:53;82.95;;;32.95;;
37955;SDS011;23776;51.592;7.180;2023-04-29T09:21:24;81.57;;;34.28;;
37955;SDS011;23776;51.592;7.180;2023-04-29T09:23:53;82.55;;;34.97;;
37955;SDS011;23776;51.592;7.180;2023-04-29T09:26:20;81.72;;;33.25;;
37955;SDS011;23776;51.592;7.180;2023-04-29T09:28:46;71.35;;;31.25;;
37955;SDS011;23776;51.592;7.180;2023-04-29T09:31:29;68.20;;;28.65;;
37955;SDS011;23776;51.592;7.180;2023-04-29T09:33:55;73.13;;;31.90;;
37955;SDS011;23776;51.592;7.180;2023-04-29T09:36:55;74.25;;;32.42;;
37955;SDS011;23776;51.592;7.180;2023-04-29T09:39:22;68.78;;;30.15;;
37955;SDS011;23776;51.592;7.180;2023-04-29T09:44:22;65.88;;;29.45;;
37955;SDS011;23776;51.592;7.180;2023-04-29T09:46:59;67.00;;;28.83;;
37955;SDS011;23776;51.592;7.180;2023-04-29T09:49:31;65.43;;;28.98;;
37955;SDS011;23776;51.592;7.180;2023-04-29T09:52:00;80.38;;;34.03;;
37955;SDS011;23776;51.592;7.180;2023-04-29T09:54:28;60.90;;;29.33;;
37955;SDS011;23776;51.592;7.180;2023-04-29T09:56:55;58.17;;;28.70;;
37955;SDS011;23776;51.592;7.180;2023-04-29T09:59:23;60.85;;;26.95;;
37955;SDS011;23776;51.592;7.180;2023-04-29T10:01:49;66.55;;;27.20;;
37955;SDS011;23776;51.592;7.180;2023-04-29T10:04:17;58.60;;;27.48;;
37955;SDS011;23776;51.592;7.180;2023-04-29T10:06:45;55.85;;;27.70;;
37955;SDS011;23776;51.592;7.180;2023-04-29T10:09:13;51.83;;;25.63;;
37955;SDS011;23776;51.592;7.180;2023-04-29T10:11:40;53.42;;;26.13;;
37955;SDS011;23776;51.592;7.180;2023-04-29T10:14:07;53.55;;;26.25;;
37955;SDS011;23776;51.592;7.180;2023-04-29T10:16:38;48.80;;;24.20;;
37955;SDS011;23776;51.592;7.180;2023-04-29T10:19:11;57.20;;;26.83;;
37955;SDS011;23776;51.592;7.180;2023-04-29T10:21:39;50.15;;;24.83;;
37955;SDS011;23776;51.592;7.180;2023-04-29T10:24:05;55.58;;;24.10;;
37955;SDS011;23776;51.592;7.180;2023-04-29T10:26:34;55.47;;;22.90;;
37955;SDS011;23776;51.592;7.180;2023-04-29T10:29:03;41.03;;;23.17;;
37955;SDS011;23776;51.592;7.180;2023-04-29T10:31:32;45.05;;;23.15;;
37955;SDS011;23776;51.592;7.180;2023-04-29T10:33:59;43.88;;;24.10;;
37955;SDS011;23776;51.592;7.180;2023-04-29T10:36:26;40.28;;;21.20;;
37955;SDS011;23776;51.592;7.180;2023-04-29T10:38:56;45.20;;;22.88;;
37955;SDS011;23776;51.592;7.180;2023-04-29T10:41:27;41.65;;;21.13;;
37955;SDS011;23776;51.592;7.180;2023-04-29T10:43:58;38.10;;;20.90;;
37955;SDS011;23776;51.592;7.180;2023-04-29T10:46:24;38.08;;;21.15;;
37955;SDS011;23776;51.592;7.180;2023-04-29T10:49:00;43.70;;;21.85;;
37955;SDS011;23776;51.592;7.180;2023-04-29T10:51:34;44.33;;;20.50;;
37955;SDS011;23776;51.592;7.180;2023-04-29T10:54:11;38.70;;;18.50;;
37955;SDS011;23776;51.592;7.180;2023-04-29T10:56:49;30.45;;;18.63;;
37955;SDS011;23776;51.592;7.180;2023-04-29T10:59:19;33.65;;;17.92;;
37955;SDS011;23776;51.592;7.180;2023-04-29T11:01:49;27.90;;;17.73;;
37955;SDS011;23776;51.592;7.180;2023-04-29T11:04:17;36.28;;;18.20;;
37955;SDS011;23776;51.592;7.180;2023-04-29T11:06:55;33.58;;;17.13;;
37955;SDS011;23776;51.592;7.180;2023-04-29T11:11:55;35.45;;;17.33;;
37955;SDS011;23776;51.592;7.180;2023-04-29T11:14:36;34.42;;;17.08;;
37955;SDS011;23776;51.592;7.180;2023-04-29T11:19:41;32.75;;;18.10;;
37955;SDS011;23776;51.592;7.180;2023-04-29T11:27:25;31.38;;;16.70;;
37955;SDS011;23776;51.592;7.180;2023-04-29T11:29:56;29.42;;;17.27;;
37955;SDS011;23776;51.592;7.180;2023-04-29T11:32:23;33.03;;;17.08;;
37955;SDS011;23776;51.592;7.180;2023-04-29T11:34:53;32.33;;;16.77;;
37955;SDS011;23776;51.592;7.180;2023-04-29T11:37:25;24.75;;;15.20;;
37955;SDS011;23776;51.592;7.180;2023-04-29T11:39:52;22.00;;;14.05;;
37955;SDS011;23776;51.592;7.180;2023-04-29T11:42:25;22.02;;;13.32;;
37955;SDS011;23776;51.592;7.180;2023-04-29T11:44:52;27.33;;;14.43;;
37955;SDS011;23776;51.592;7.180;2023-04-29T11:47:20;21.77;;;13.48;;
37955;SDS011;23776;51.592;7.180;2023-04-29T11:49:50;21.83;;;13.10;;
37955;SDS011;23776;51.592;7.180;2023-04-29T11:52:16;21.27;;;12.73;;
37955;SDS011;23776;51.592;7.180;2023-04-29T11:54:42;22.80;;;12.73;;
37955;SDS011;23776;51.592;7.180;2023-04-29T11:57:09;24.23;;;14.38;;
37955;SDS011;23776;51.592;7.180;2023-04-29T11:59:34;25.65;;;15.13;;
37955;SDS011;23776;51.592;7.180;2023-04-29T12:02:00;19.75;;;11.93;;
37955;SDS011;23776;51.592;7.180;2023-04-29T12:04:26;19.77;;;11.32;;
37955;SDS011;23776;51.592;7.180;2023-04-29T12:06:51;17.60;;;10.90;;
37955;SDS011;23776;51.592;7.180;2023-04-29T12:09:17;18.08;;;11.70;;
37955;SDS011;23776;51.592;7.180;2023-04-29T12:11:43;20.73;;;11.20;;
37955;SDS011;23776;51.592;7.180;2023-04-29T12:14:11;22.45;;;12.10;;
37955;SDS011;23776;51.592;7.180;2023-04-29T12:16:38;29.80;;;12.70;;
37955;SDS011;23776;51.592;7.180;2023-04-29T12:19:04;21.15;;;12.52;;
37955;SDS011;23776;51.592;7.180;2023-04-29T12:21:30;20.10;;;12.02;;
37955;SDS011;23776;51.592;7.180;2023-04-29T12:23:58;23.65;;;11.35;;
37955;SDS011;23776;51.592;7.180;2023-04-29T12:26:26;24.67;;;14.38;;
37955;SDS011;23776;51.592;7.180;2023-04-29T12:28:53;25.38;;;13.23;;
37955;SDS011;23776;51.592;7.180;2023-04-29T12:31:21;21.25;;;12.07;;
37955;SDS011;23776;51.592;7.180;2023-04-29T12:33:48;23.00;;;13.27;;
37955;SDS011;23776;51.592;7.180;2023-04-29T12:36:17;21.73;;;12.15;;
37955;SDS011;23776;51.592;7.180;2023-04-29T12:38:43;17.67;;;11.90;;
37955;SDS011;23776;51.592;7.180;2023-04-29T12:41:09;17.30;;;10.90;;
37955;SDS011;23776;51.592;7.180;2023-04-29T12:43:38;17.75;;;11.50;;
37955;SDS011;23776;51.592;7.180;2023-04-29T12:46:04;18.52;;;9.85;;
37955;SDS011;23776;51.592;7.180;2023-04-29T12:48:32;19.55;;;11.10;;
37955;SDS011;23776;51.592;7.180;2023-04-29T12:50:59;21.90;;;11.35;;
37955;SDS011;23776;51.592;7.180;2023-04-29T12:53:26;16.77;;;11.68;;
37955;SDS011;23776;51.592;7.180;2023-04-29T12:55:53;15.63;;;10.52;;
37955;SDS011;23776;51.592;7.180;2023-04-29T12:58:19;17.90;;;10.38;;
37955;SDS011;23776;51.592;7.180;2023-04-29T13:00:44;19.92;;;11.25;;
37955;SDS011;23776;51.592;7.180;2023-04-29T13:03:10;15.82;;;9.40;;
37955;SDS011;23776;51.592;7.180;2023-04-29T13:05:36;22.02;;;11.05;;
37955;SDS011;23776;51.592;7.180;2023-04-29T13:08:01;21.70;;;11.32;;
37955;SDS011;23776;51.592;7.180;2023-04-29T13:10:30;19.00;;;9.93;;
37955;SDS011;23776;51.592;7.180;2023-04-29T13:12:57;15.40;;;8.80;;
37955;SDS011;23776;51.592;7.180;2023-04-29T13:15:22;19.05;;;9.38;;
37955;SDS011;23776;51.592;7.180;2023-04-29T13:17:48;21.25;;;9.23;;
37955;SDS011;23776;51.592;7.180;2023-04-29T13:20:14;17.40;;;9.65;;
37955;SDS011;23776;51.592;7.180;2023-04-29T13:22:39;19.67;;;10.23;;
37955;SDS011;23776;51.592;7.180;2023-04-29T13:25:07;19.08;;;10.18;;
37955;SDS011;23776;51.592;7.180;2023-04-29T13:27:33;16.20;;;9.93;;
37955;SDS011;23776;51.592;7.180;2023-04-29T13:29:58;16.75;;;10.02;;
37955;SDS011;23776;51.592;7.180;2023-04-29T13:32:24;18.80;;;10.38;;
37955;SDS011;23776;51.592;7.180;2023-04-29T13:34:49;21.70;;;9.88;;
37955;SDS011;23776;51.592;7.180;2023-04-29T13:37:15;19.17;;;9.43;;
37955;SDS011;23776;51.592;7.180;2023-04-29T13:39:41;16.27;;;9.23;;
37955;SDS011;23776;51.592;7.180;2023-04-29T13:42:07;15.63;;;8.90;;
37955;SDS011;23776;51.592;7.180;2023-04-29T13:44:34;16.02;;;8.63;;
37955;SDS011;23776;51.592;7.180;2023-04-29T13:47:00;16.38;;;9.18;;
37955;SDS011;23776;51.592;7.180;2023-04-29T13:49:26;13.43;;;7.63;;
37955;SDS011;23776;51.592;7.180;2023-04-29T13:51:52;19.25;;;9.25;;
37955;SDS011;23776;51.592;7.180;2023-04-29T13:54:17;15.27;;;8.10;;
37955;SDS011;23776;51.592;7.180;2023-04-29T13:56:45;13.70;;;8.70;;
37955;SDS011;23776;51.592;7.180;2023-04-29T13:59:11;15.70;;;9.60;;
37955;SDS011;23776;51.592;7.180;2023-04-29T14:01:37;19.13;;;9.50;;
37955;SDS011;23776;51.592;7.180;2023-04-29T14:04:02;15.38;;;9.13;;
37955;SDS011;23776;51.592;7.180;2023-04-29T14:06:28;16.75;;;9.02;;
37955;SDS011;23776;51.592;7.180;2023-04-29T14:08:56;15.88;;;9.23;;
37955;SDS011;23776;51.592;7.180;2023-04-29T14:11:22;17.58;;;8.95;;
37955;SDS011;23776;51.592;7.180;2023-04-29T14:13:47;17.98;;;9.23;;
37955;SDS011;23776;51.592;7.180;2023-04-29T14:16:13;14.98;;;8.50;;
37955;SDS011;23776;51.592;7.180;2023-04-29T14:18:39;17.85;;;10.00;;
37955;SDS011;23776;51.592;7.180;2023-04-29T14:21:05;14.82;;;9.25;;
37955;SDS011;23776;51.592;7.180;2023-04-29T14:23:30;15.95;;;8.77;;
37955;SDS011;23776;51.592;7.180;2023-04-29T14:25:56;13.77;;;8.25;;
37955;SDS011;23776;51.592;7.180;2023-04-29T14:28:22;14.60;;;9.68;;
37955;SDS011;23776;51.592;7.180;2023-04-29T14:30:47;17.25;;;8.85;;
37955;SDS011;23776;51.592;7.180;2023-04-29T14:33:13;14.35;;;8.27;;
37955;SDS011;23776;51.592;7.180;2023-04-29T14:35:38;14.48;;;7.85;;
37955;SDS011;23776;51.592;7.180;2023-04-29T14:38:04;14.52;;;8.00;;
37955;SDS011;23776;51.592;7.180;2023-04-29T14:40:29;12.68;;;7.18;;
37955;SDS011;23776;51.592;7.180;2023-04-29T14:42:55;15.73;;;8.30;;
37955;SDS011;23776;51.592;7.180;2023-04-29T14:45:20;14.90;;;8.23;;
37955;SDS011;23776;51.592;7.180;2023-04-29T14:47:46;13.30;;;8.32;;